Time;durP1;ratioP1;P1;durP2;ratioP2;P2;SDS_P1;SDS_P2;PMS_P1;PMS_P2;Temp;Humidity;BMP_temperature;BMP_pressure;BME280_temperature;BME280_humidity;BME280_pressure;Samples;Min_cycle;Max_cycle;Signal;HPM_P1;HPM_P2
2021/07/05 00:02:20;;;;;;;2.00;1.80;;;14.80;93.40;;;;;;5069709;28;20133;-78
2021/07/05 00:04:46;;;;;;;2.50;2.28;;;14.90;93.40;;;;;;5070500;28;20038;-77
2021/07/05 00:07:11;;;;;;;4.28;1.63;;;14.90;94.20;;;;;;5069847;28;20032;-78
2021/07/05 00:09:39;;;;;;;1.52;1.42;;;14.70;93.30;;;;;;5088969;28;20062;-78
2021/07/05 00:12:05;;;;;;;3.60;1.98;;;14.70;93.90;;;;;;5081887;28;20035;-78
2021/07/05 00:14:30;;;;;;;5.40;2.22;;;14.70;93.10;;;;;;5072199;28;20032;-78
2021/07/05 00:16:56;;;;;;;2.70;2.05;;;14.60;93.70;;;;;;5088695;28;20036;-79
2021/07/05 00:19:22;;;;;;;2.38;1.80;;;14.60;93.20;;;;;;5070203;28;20070;-78
2021/07/05 00:21:47;;;;;;;4.32;1.98;;;14.60;93.40;;;;;;5075063;28;20043;-77
2021/07/05 00:24:13;;;;;;;7.65;2.40;;;14.60;94.10;;;;;;5054256;28;20036;-78
2021/07/05 00:26:39;;;;;;;2.30;2.10;;;14.60;93.80;;;;;;5053676;28;20032;-79
2021/07/05 00:29:04;;;;;;;5.20;1.58;;;14.50;94.60;;;;;;5073134;28;20043;-78
2021/07/05 00:31:30;;;;;;;2.80;1.80;;;14.50;93.30;;;;;;5052397;27;20040;-78
2021/07/05 00:33:55;;;;;;;4.05;1.67;;;14.60;94.20;;;;;;5076400;28;20031;-79
2021/07/05 00:36:21;;;;;;;1.63;1.52;;;14.50;94.00;;;;;;5069383;28;20036;-77
2021/07/05 00:38:46;;;;;;;4.68;1.45;;;14.70;94.10;;;;;;5054232;28;20032;-77
2021/07/05 00:41:12;;;;;;;4.07;1.77;;;14.60;94.20;;;;;;5070175;28;20024;-78
2021/07/05 00:43:37;;;;;;;1.42;1.33;;;14.60;93.60;;;;;;5070936;28;20099;-79
2021/07/05 00:46:03;;;;;;;4.72;1.55;;;14.60;94.00;;;;;;5068579;28;20543;-79
2021/07/05 00:48:29;;;;;;;3.10;1.60;;;14.60;94.20;;;;;;5067104;28;20054;-78
2021/07/05 00:50:54;;;;;;;1.33;1.20;;;14.40;94.20;;;;;;5086265;28;20092;-78
2021/07/05 00:53:20;;;;;;;1.58;1.48;;;14.40;94.10;;;;;;5068010;28;20036;-78
2021/07/05 00:55:45;;;;;;;1.95;1.75;;;14.50;94.20;;;;;;5071048;28;20629;-77
2021/07/05 00:58:11;;;;;;;3.88;1.88;;;14.50;94.00;;;;;;5067837;28;20495;-79
2021/07/05 01:00:37;;;;;;;4.20;1.80;;;14.40;93.60;;;;;;5068305;28;20492;-78
2021/07/05 01:03:03;;;;;;;1.65;1.48;;;14.40;93.90;;;;;;5064024;28;20036;-79
2021/07/05 01:05:29;;;;;;;4.57;1.88;;;14.40;93.80;;;;;;5070176;28;20039;-78
2021/07/05 01:07:54;;;;;;;5.68;1.67;;;14.30;94.80;;;;;;5071160;28;20391;-78
2021/07/05 01:10:21;;;;;;;3.70;1.58;;;14.40;94.80;;;;;;5083267;28;20065;-78
2021/07/05 01:12:46;;;;;;;1.83;1.73;;;14.40;94.10;;;;;;5069732;28;20390;-80
2021/07/05 01:15:14;;;;;;;1.88;1.77;;;14.30;94.20;;;;;;5052082;28;20042;-78
2021/07/05 01:17:40;;;;;;;1.92;1.40;;;14.30;95.30;;;;;;5069410;27;20093;-77
2021/07/05 01:20:07;;;;;;;3.45;1.95;;;14.30;94.80;;;;;;5068937;28;20032;-79
2021/07/05 01:22:32;;;;;;;2.83;2.42;;;14.30;94.50;;;;;;5051943;28;20032;-78
2021/07/05 01:24:58;;;;;;;3.20;1.95;;;14.30;94.40;;;;;;5082167;28;20090;-79
2021/07/05 01:27:24;;;;;;;2.13;1.45;;;14.30;95.10;;;;;;5067461;28;20518;-78
2021/07/05 01:29:50;;;;;;;2.75;1.50;;;14.30;94.70;;;;;;5060019;28;20081;-78
2021/07/05 01:32:15;;;;;;;5.90;1.70;;;14.40;95.10;;;;;;5068314;28;20039;-78
2021/07/05 01:34:41;;;;;;;4.80;2.00;;;14.50;95.20;;;;;;5053371;28;20404;-77
2021/07/05 01:37:07;;;;;;;1.90;1.75;;;14.50;95.60;;;;;;5068968;28;20487;-78
2021/07/05 01:39:33;;;;;;;2.78;1.50;;;14.60;95.30;;;;;;5067373;28;20381;-79
2021/07/05 01:41:58;;;;;;;1.77;1.65;;;14.60;95.00;;;;;;5052134;28;20034;-78
2021/07/05 01:44:24;;;;;;;2.22;1.40;;;14.60;94.80;;;;;;5069049;28;20052;-79
2021/07/05 01:46:49;;;;;;;2.95;1.50;;;14.70;95.30;;;;;;5071265;28;20399;-79
2021/07/05 01:49:15;;;;;;;2.50;1.35;;;14.60;95.10;;;;;;5069881;28;20024;-78
2021/07/05 01:51:40;;;;;;;1.45;1.35;;;14.60;95.20;;;;;;5069122;28;20035;-78
2021/07/05 01:54:06;;;;;;;2.00;1.75;;;14.70;95.20;;;;;;5084316;28;20035;-78
2021/07/05 01:56:32;;;;;;;2.60;1.40;;;14.60;96.00;;;;;;5066367;28;20037;-77
2021/07/05 01:58:57;;;;;;;1.25;1.15;;;14.60;96.00;;;;;;5068353;28;20028;-77
2021/07/05 02:01:23;;;;;;;3.47;1.70;;;14.70;95.60;;;;;;5067085;28;20082;-79
2021/07/05 02:03:49;;;;;;;2.35;1.50;;;14.70;95.40;;;;;;5067836;28;20484;-77
2021/07/05 02:06:15;;;;;;;3.00;1.38;;;14.80;95.10;;;;;;5050958;28;20488;-80
2021/07/05 02:08:40;;;;;;;2.38;2.17;;;14.80;95.70;;;;;;5071851;28;20032;-78
2021/07/05 02:11:06;;;;;;;2.80;1.67;;;14.50;95.90;;;;;;5068445;28;20023;-77
2021/07/05 02:13:33;;;;;;;3.13;1.65;;;14.50;96.40;;;;;;5069195;28;20668;-79
2021/07/05 02:15:59;;;;;;;5.68;2.80;;;14.50;95.80;;;;;;5067025;28;20089;-79
2021/07/05 02:18:25;;;;;;;6.15;2.35;;;14.70;96.20;;;;;;5083877;28;20051;-79
2021/07/05 02:20:51;;;;;;;2.40;1.98;;;14.60;95.50;;;;;;5083066;28;20414;-79
2021/07/05 02:23:18;;;;;;;4.70;2.42;;;14.60;95.60;;;;;;5067965;28;20055;-78
2021/07/05 02:25:43;;;;;;;3.45;2.35;;;14.70;95.70;;;;;;5068365;28;20039;-84
2021/07/05 02:28:14;;;;;;;2.75;2.40;;;14.60;96.50;;;;;;5083188;28;20484;-83
2021/07/05 02:30:41;;;;;;;2.72;1.63;;;14.50;97.20;;;;;;5053393;28;20035;-84
2021/07/05 02:33:06;;;;;;;3.03;1.80;;;14.50;95.60;;;;;;5068436;27;20045;-83
2021/07/05 02:35:34;;;;;;;2.47;2.03;;;14.40;96.10;;;;;;5050762;28;20121;-83
2021/07/05 02:37:59;;;;;;;2.47;1.77;;;14.30;96.10;;;;;;5067507;28;20032;-83
2021/07/05 02:40:28;;;;;;;3.28;1.92;;;14.50;96.40;;;;;;5065133;28;20062;-82
2021/07/05 02:42:54;;;;;;;2.55;1.40;;;14.50;96.00;;;;;;5086609;28;20509;-83
2021/07/05 02:45:24;;;;;;;2.75;1.40;;;14.50;96.10;;;;;;5068545;28;20119;-83
2021/07/05 02:47:54;;;;;;;4.05;2.20;;;14.60;95.50;;;;;;5053595;28;20471;-78
2021/07/05 02:50:20;;;;;;;4.93;2.05;;;14.50;96.30;;;;;;5066652;28;20028;-78
2021/07/05 02:52:45;;;;;;;5.38;2.33;;;14.50;96.70;;;;;;5068408;28;20043;-79
2021/07/05 02:55:11;;;;;;;3.22;2.15;;;14.50;96.90;;;;;;5050290;28;20024;-78
2021/07/05 02:57:37;;;;;;;1.60;1.50;;;14.40;96.20;;;;;;5067071;28;20115;-78
2021/07/05 03:00:11;;;;;;;2.40;1.90;;;14.50;95.30;;;;;;5065743;27;20043;-79
2021/07/05 03:02:36;;;;;;;3.30;2.38;;;14.50;96.10;;;;;;5084092;28;20036;-77
2021/07/05 03:05:03;;;;;;;2.33;2.10;;;14.40;97.20;;;;;;5067065;28;20031;-79
2021/07/05 03:07:28;;;;;;;2.30;1.90;;;14.30;96.90;;;;;;5066170;28;20050;-79
2021/07/05 03:09:54;;;;;;;2.00;1.67;;;14.40;97.00;;;;;;5068335;28;20020;-79
2021/07/05 03:12:20;;;;;;;2.95;1.98;;;14.40;96.60;;;;;;5068533;27;20032;-78
2021/07/05 03:14:46;;;;;;;6.07;2.47;;;14.40;96.90;;;;;;5051075;28;20611;-81
2021/07/05 03:17:11;;;;;;;4.30;2.30;;;14.40;96.40;;;;;;5047418;28;20559;-78
2021/07/05 03:19:37;;;;;;;5.03;2.40;;;14.50;96.80;;;;;;5084736;28;20055;-78
2021/07/05 03:22:03;;;;;;;3.42;1.83;;;14.40;97.00;;;;;;5081540;28;20438;-78
2021/07/05 03:24:28;;;;;;;4.03;1.90;;;14.30;97.00;;;;;;5065769;28;20032;-79
2021/07/05 03:26:54;;;;;;;1.90;1.80;;;14.40;96.70;;;;;;5081086;28;20036;-78
2021/07/05 03:29:19;;;;;;;2.97;1.58;;;14.50;96.90;;;;;;5076644;27;20083;-78
2021/07/05 03:31:45;;;;;;;3.72;1.80;;;14.50;97.00;;;;;;5055989;28;20074;-79
2021/07/05 03:34:10;;;;;;;2.75;1.73;;;14.60;96.30;;;;;;5055385;28;20056;-78
2021/07/05 03:36:36;;;;;;;2.22;1.80;;;14.50;96.80;;;;;;5056902;28;20078;-79
2021/07/05 03:39:02;;;;;;;7.40;1.65;;;14.60;96.40;;;;;;5071126;28;20028;-80
2021/07/05 03:41:28;;;;;;;1.60;1.50;;;14.70;95.90;;;;;;5089733;28;20458;-78
2021/07/05 03:43:53;;;;;;;8.43;2.28;;;14.70;95.80;;;;;;5089866;28;20122;-78
2021/07/05 03:46:19;;;;;;;2.30;1.80;;;14.80;97.10;;;;;;5090100;27;20072;-78
2021/07/05 03:48:44;;;;;;;3.25;1.80;;;14.80;97.10;;;;;;5071319;28;20119;-78
2021/07/05 03:51:10;;;;;;;1.35;1.20;;;14.90;96.50;;;;;;5069362;28;20392;-78
2021/07/05 03:53:35;;;;;;;2.25;1.40;;;15.00;96.70;;;;;;5071199;28;20287;-78
2021/07/05 03:56:03;;;;;;;5.32;1.77;;;15.00;96.00;;;;;;5070701;27;20394;-79
2021/07/05 03:58:28;;;;;;;7.10;1.60;;;15.10;95.80;;;;;;5070112;28;20419;-77
2021/07/05 04:00:54;;;;;;;3.20;1.58;;;15.20;96.50;;;;;;5069674;28;20040;-78
2021/07/05 04:03:19;;;;;;;2.60;2.20;;;15.20;95.60;;;;;;5070625;28;20031;-78
2021/07/05 04:05:46;;;;;;;6.05;2.35;;;15.30;96.50;;;;;;5070648;28;20032;-77
2021/07/05 04:08:11;;;;;;;2.17;1.40;;;15.40;97.00;;;;;;5073672;27;20131;-77
2021/07/05 04:10:38;;;;;;;3.25;1.60;;;15.50;97.00;;;;;;5072026;28;20119;-78
2021/07/05 04:13:06;;;;;;;3.00;1.35;;;15.50;96.50;;;;;;5072337;27;20023;-77
2021/07/05 04:15:32;;;;;;;2.65;1.80;;;15.60;96.20;;;;;;5073654;28;20040;-79
2021/07/05 04:17:58;;;;;;;2.45;2.00;;;15.60;96.10;;;;;;5069200;28;20085;-79
2021/07/05 04:20:24;;;;;;;4.40;1.95;;;15.70;96.40;;;;;;5053624;28;20036;-78
2021/07/05 04:22:49;;;;;;;2.00;1.80;;;15.60;96.50;;;;;;5070354;28;20021;-78
2021/07/05 04:25:16;;;;;;;5.05;2.15;;;15.80;96.40;;;;;;5069656;28;20107;-77
2021/07/05 04:27:42;;;;;;;2.83;1.67;;;15.80;96.40;;;;;;5073387;28;20032;-77
2021/07/05 04:30:08;;;;;;;3.10;1.20;;;15.80;95.80;;;;;;5072373;27;20024;-78
2021/07/05 04:32:37;;;;;;;1.60;1.33;;;15.90;95.50;;;;;;5057518;28;20056;-79
2021/07/05 04:35:07;;;;;;;3.63;1.27;;;15.90;95.10;;;;;;5075097;28;20023;-79
2021/07/05 04:37:32;;;;;;;1.60;1.50;;;15.90;95.80;;;;;;5071850;28;20146;-79
2021/07/05 04:39:58;;;;;;;9.88;2.05;;;15.90;95.80;;;;;;5072121;28;20231;-78
2021/07/05 04:42:23;;;;;;;6.03;1.33;;;15.80;96.10;;;;;;5069538;28;20073;-77
2021/07/05 04:44:50;;;;;;;2.55;1.30;;;15.60;96.80;;;;;;5053087;28;20032;-79
2021/07/05 04:47:16;;;;;;;2.92;1.70;;;15.60;97.30;;;;;;5072748;28;20039;-79
2021/07/05 04:49:42;;;;;;;1.85;1.33;;;15.60;97.00;;;;;;5071446;28;20028;-79
2021/07/05 04:52:07;;;;;;;1.80;0.85;;;15.60;97.50;;;;;;5088598;28;20028;-78
2021/07/05 04:54:33;;;;;;;2.50;1.20;;;15.60;97.50;;;;;;5069903;28;20029;-78
2021/07/05 04:56:58;;;;;;;2.00;0.98;;;15.70;97.60;;;;;;5072757;28;20929;-79
2021/07/05 04:59:25;;;;;;;1.52;0.82;;;15.60;97.50;;;;;;5070708;28;20070;-78
2021/07/05 05:01:50;;;;;;;2.75;1.10;;;15.70;97.50;;;;;;5083744;27;20036;-78
2021/07/05 05:04:16;;;;;;;2.08;0.98;;;15.70;97.30;;;;;;5070100;28;20403;-79
2021/07/05 05:06:42;;;;;;;2.03;1.42;;;15.70;97.50;;;;;;5069234;28;20032;-79
2021/07/05 05:09:08;;;;;;;2.75;0.75;;;15.60;97.30;;;;;;5086390;28;20388;-79
2021/07/05 05:11:33;;;;;;;1.15;1.00;;;15.70;97.00;;;;;;5069241;28;20062;-79
2021/07/05 05:13:59;;;;;;;2.88;2.05;;;15.70;97.10;;;;;;5072547;28;20402;-79
2021/07/05 05:16:24;;;;;;;2.92;1.45;;;15.70;97.60;;;;;;5070973;28;20089;-78
2021/07/05 05:18:50;;;;;;;5.30;1.58;;;15.50;97.20;;;;;;5069523;28;20396;-79
2021/07/05 05:21:15;;;;;;;2.17;1.10;;;15.40;97.20;;;;;;5053425;28;20485;-79
2021/07/05 05:23:47;;;;;;;4.63;1.20;;;15.20;97.10;;;;;;5058655;27;20028;-79
2021/07/05 05:26:13;;;;;;;2.08;1.10;;;15.40;97.20;;;;;;5069575;28;20161;-80
2021/07/05 05:28:39;;;;;;;3.38;1.23;;;15.40;96.90;;;;;;5069572;28;20127;-80
2021/07/05 05:31:04;;;;;;;14.63;1.70;;;15.30;97.00;;;;;;5066873;28;20047;-81
2021/07/05 05:33:30;;;;;;;3.97;1.40;;;15.20;96.70;;;;;;5051525;28;20138;-80
2021/07/05 05:35:55;;;;;;;4.75;1.38;;;15.20;96.90;;;;;;5070175;28;20032;-81
2021/07/05 05:38:21;;;;;;;5.15;1.23;;;15.10;97.00;;;;;;5075760;28;20035;-80
2021/07/05 05:40:48;;;;;;;1.73;1.10;;;15.10;97.00;;;;;;5069552;28;20027;-80
2021/07/05 05:43:13;;;;;;;3.90;1.20;;;15.10;96.50;;;;;;5070820;28;20032;-80
2021/07/05 05:45:39;;;;;;;3.17;1.00;;;15.10;96.70;;;;;;5067985;28;20032;-80
2021/07/05 05:48:05;;;;;;;11.13;1.10;;;15.20;96.70;;;;;;5068981;28;20035;-80
2021/07/05 05:50:31;;;;;;;3.17;1.17;;;15.10;96.60;;;;;;5089340;28;20426;-81
2021/07/05 05:52:56;;;;;;;2.15;1.42;;;15.10;96.50;;;;;;5071254;28;20127;-81
2021/07/05 05:55:22;;;;;;;3.05;1.23;;;15.00;96.40;;;;;;5069348;27;20066;-81
2021/07/05 05:57:47;;;;;;;2.85;1.40;;;15.10;96.60;;;;;;5070623;28;20036;-81
2021/07/05 06:00:18;;;;;;;2.60;1.27;;;15.10;96.30;;;;;;5053937;28;20028;-82
2021/07/05 06:02:44;;;;;;;1.75;0.90;;;15.10;96.40;;;;;;5067940;28;20040;-81
2021/07/05 06:05:09;;;;;;;2.05;1.20;;;15.10;96.40;;;;;;5068598;28;20024;-81
2021/07/05 06:07:35;;;;;;;3.03;1.00;;;15.10;96.40;;;;;;5068724;28;20073;-81
2021/07/05 06:10:04;;;;;;;2.90;1.48;;;15.10;96.30;;;;;;5045138;28;20063;-81
2021/07/05 06:12:29;;;;;;;2.63;1.77;;;15.00;96.80;;;;;;5068813;28;20024;-81
2021/07/05 06:14:55;;;;;;;2.50;1.42;;;14.90;96.20;;;;;;5056838;28;20629;-81
2021/07/05 06:17:20;;;;;;;1.95;1.15;;;15.00;96.40;;;;;;5054647;28;20028;-81
2021/07/05 06:19:46;;;;;;;2.30;1.20;;;15.00;96.10;;;;;;5067645;28;20043;-81
2021/07/05 06:22:17;;;;;;;2.42;1.17;;;15.00;95.90;;;;;;5070484;28;20024;-81
2021/07/05 06:24:47;;;;;;;2.60;1.50;;;15.10;96.10;;;;;;5068516;28;20101;-81
2021/07/05 06:27:13;;;;;;;1.27;1.17;;;15.20;96.10;;;;;;5087726;28;20059;-81
2021/07/05 06:29:39;;;;;;;3.67;2.08;;;15.20;95.90;;;;;;5057255;28;20032;-82
2021/07/05 06:32:05;;;;;;;3.65;2.08;;;15.20;96.00;;;;;;5060933;28;20514;-82
2021/07/05 06:34:30;;;;;;;3.58;2.05;;;15.30;95.90;;;;;;5068851;28;20116;-81
2021/07/05 06:36:56;;;;;;;5.25;3.03;;;15.30;96.00;;;;;;5053595;28;20048;-81
2021/07/05 06:39:21;;;;;;;4.80;2.42;;;15.40;96.20;;;;;;5071203;28;20034;-82
2021/07/05 06:41:47;;;;;;;4.57;2.53;;;15.40;95.80;;;;;;5053726;28;20394;-81
2021/07/05 06:44:13;;;;;;;4.90;2.58;;;15.40;96.20;;;;;;5071296;27;20024;-81
2021/07/05 06:46:39;;;;;;;5.57;3.17;;;15.30;96.00;;;;;;5050762;28;20127;-81
2021/07/05 06:49:04;;;;;;;5.15;3.05;;;15.40;96.30;;;;;;5068856;28;20101;-80
2021/07/05 06:51:30;;;;;;;3.67;2.67;;;15.40;96.70;;;;;;5085933;28;20054;-81
2021/07/05 06:53:55;;;;;;;5.18;2.22;;;15.40;96.20;;;;;;5068521;28;20452;-81
2021/07/05 06:56:21;;;;;;;3.00;2.08;;;15.50;96.20;;;;;;5067731;27;20035;-81
2021/07/05 06:58:46;;;;;;;3.08;2.78;;;15.50;95.80;;;;;;5084231;28;20068;-80
2021/07/05 07:01:12;;;;;;;2.78;2.28;;;15.60;96.20;;;;;;5064283;28;20032;-80
2021/07/05 07:03:37;;;;;;;4.07;1.83;;;15.60;96.20;;;;;;5054977;28;20394;-81
2021/07/05 07:06:03;;;;;;;3.05;1.88;;;15.70;95.90;;;;;;5057906;28;20143;-80
2021/07/05 07:08:28;;;;;;;3.47;2.00;;;15.80;95.90;;;;;;5074121;28;20048;-80
2021/07/05 07:10:54;;;;;;;2.10;1.90;;;15.90;96.00;;;;;;5070832;28;20396;-80
2021/07/05 07:13:20;;;;;;;3.47;1.80;;;16.00;96.10;;;;;;5071033;28;20031;-81
2021/07/05 07:15:49;;;;;;;4.53;2.67;;;16.10;95.90;;;;;;5070725;28;20028;-79
2021/07/05 07:20:46;;;;;;;2.38;1.35;;;16.20;95.60;;;;;;5073145;28;20024;-80
2021/07/05 07:23:12;;;;;;;3.40;1.70;;;16.30;96.00;;;;;;5073909;28;20024;-81
2021/07/05 07:25:37;;;;;;;3.45;1.70;;;16.50;95.90;;;;;;5072047;28;20028;-80
2021/07/05 07:28:03;;;;;;;4.15;2.03;;;16.50;95.70;;;;;;5066556;28;20032;-80
2021/07/05 07:30:29;;;;;;;2.72;1.70;;;16.50;95.50;;;;;;5087773;28;20035;-80
2021/07/05 07:32:54;;;;;;;1.63;1.38;;;16.60;95.40;;;;;;5074044;28;20160;-81
2021/07/05 07:35:20;;;;;;;5.38;1.45;;;16.80;95.60;;;;;;5061486;28;20055;-80
2021/07/05 07:37:47;;;;;;;1.67;1.52;;;16.80;95.80;;;;;;5073175;28;20081;-80
2021/07/05 07:40:22;;;;;;;2.85;1.60;;;17.00;95.10;;;;;;5070988;28;20059;-80
2021/07/05 07:42:48;;;;;;;4.55;1.33;;;17.10;95.50;;;;;;5077858;28;20522;-81
2021/07/05 07:45:14;;;;;;;3.30;1.48;;;17.20;95.40;;;;;;5068428;28;20028;-80
2021/07/05 07:47:40;;;;;;;3.50;1.50;;;17.30;94.80;;;;;;5061205;28;20476;-80
2021/07/05 07:50:06;;;;;;;2.10;1.35;;;17.30;95.20;;;;;;5072551;28;20032;-80
2021/07/05 07:52:32;;;;;;;3.53;1.50;;;17.50;95.40;;;;;;5072165;28;20070;-81
2021/07/05 07:54:58;;;;;;;3.05;1.40;;;17.80;94.90;;;;;;5071391;28;20036;-80
2021/07/05 07:57:24;;;;;;;2.90;1.67;;;17.90;94.50;;;;;;5070782;28;20477;-80
2021/07/05 07:59:49;;;;;;;5.00;2.08;;;18.00;94.80;;;;;;5057458;28;20406;-80
2021/07/05 08:02:15;;;;;;;3.30;1.70;;;18.20;95.20;;;;;;5070195;27;20028;-79
2021/07/05 08:04:40;;;;;;;3.03;1.90;;;18.40;94.20;;;;;;5069400;28;20036;-79
2021/07/05 08:07:06;;;;;;;3.40;1.90;;;18.60;95.70;;;;;;5070495;28;20386;-80
2021/07/05 08:09:32;;;;;;;3.67;2.13;;;18.90;95.30;;;;;;5067979;28;20047;-81
2021/07/05 08:11:58;;;;;;;4.93;2.75;;;18.60;94.40;;;;;;5070237;28;20491;-79
2021/07/05 08:14:23;;;;;;;5.30;2.30;;;18.70;94.20;;;;;;5066229;28;20040;-79
2021/07/05 08:16:49;;;;;;;7.18;2.40;;;18.90;94.50;;;;;;5048943;28;20024;-80
2021/07/05 08:19:15;;;;;;;4.88;2.17;;;19.00;94.30;;;;;;5054609;28;20100;-80
2021/07/05 08:21:41;;;;;;;5.05;2.38;;;19.50;94.70;;;;;;5068991;28;20024;-80
2021/07/05 08:24:07;;;;;;;3.20;2.40;;;19.60;94.10;;;;;;5088667;28;20043;-81
2021/07/05 08:26:32;;;;;;;3.40;1.98;;;20.10;94.70;;;;;;5069955;28;20395;-80
2021/07/05 08:28:58;;;;;;;3.25;2.22;;;20.30;92.40;;;;;;5052748;28;20105;-82
2021/07/05 08:31:24;;;;;;;9.57;2.50;;;20.60;93.00;;;;;;5068234;28;20105;-81
2021/07/05 08:33:51;;;;;;;5.72;2.75;;;20.90;93.10;;;;;;5069065;28;20476;-83
2021/07/05 08:36:16;;;;;;;6.22;2.55;;;21.00;92.20;;;;;;5053595;28;20025;-81
2021/07/05 08:38:42;;;;;;;6.07;2.45;;;21.30;94.20;;;;;;5067083;28;20048;-82
2021/07/05 08:41:08;;;;;;;9.95;2.55;;;21.50;91.90;;;;;;5074161;28;20055;-82
2021/07/05 08:43:33;;;;;;;5.03;2.40;;;21.80;93.70;;;;;;5052496;28;20054;-82
2021/07/05 08:46:01;;;;;;;6.38;2.53;;;22.40;94.60;;;;;;5069759;28;20044;-82
2021/07/05 08:48:29;;;;;;;4.32;2.55;;;22.90;94.70;;;;;;5070513;28;20433;-82
2021/07/05 08:50:54;;;;;;;4.43;2.38;;;23.40;94.20;;;;;;5054816;28;20542;-83
2021/07/05 08:53:20;;;;;;;2.75;1.90;;;23.40;92.30;;;;;;5064165;28;20085;-81
2021/07/05 08:55:45;;;;;;;4.32;1.98;;;22.90;89.80;;;;;;5052445;28;20050;-81
2021/07/05 08:58:11;;;;;;;4.25;1.77;;;22.60;92.50;;;;;;5069036;28;20028;-83
2021/07/05 09:00:37;;;;;;;4.55;1.90;;;23.00;90.20;;;;;;5052740;28;20041;-82
2021/07/05 09:03:03;;;;;;;6.22;2.42;;;22.90;91.00;;;;;;5067600;28;20024;-82
2021/07/05 09:05:28;;;;;;;5.00;2.33;;;22.90;90.40;;;;;;5068126;28;20028;-81
2021/07/05 09:08:10;;;;;;;4.45;1.92;;;23.10;88.70;;;;;;5086349;28;20495;-81
2021/07/05 09:10:52;;;;;;;3.35;2.38;;;22.90;85.40;;;;;;5052246;28;20133;-81
2021/07/05 09:13:20;;;;;;;6.70;3.25;;;22.60;88.80;;;;;;5071046;28;20027;-81
2021/07/05 09:15:52;;;;;;;4.38;2.55;;;22.90;88.30;;;;;;5088149;28;20408;-82
2021/07/05 09:18:38;;;;;;;8.13;3.10;;;24.00;92.70;;;;;;5053431;28;20496;-81
2021/07/05 09:21:21;;;;;;;3.28;2.35;;;24.40;91.70;;;;;;5069918;28;20059;-81
2021/07/05 09:23:48;;;;;;;5.72;2.70;;;24.40;90.30;;;;;;5068052;28;20096;-83
2021/07/05 09:26:34;;;;;;;4.15;2.60;;;24.20;85.20;;;;;;5067838;28;20044;-81
2021/07/05 09:29:06;;;;;;;;;;;23.90;90.40;;;;;;5088411;28;20035;-84
2021/07/05 09:31:37;;;;;;;6.45;2.75;;;24.30;90.50;;;;;;5084741;28;19912;-82
2021/07/05 09:34:04;;;;;;;5.10;3.05;;;24.20;83.80;;;;;;5068728;28;20122;-82
2021/07/05 09:36:30;;;;;;;3.60;2.88;;;24.10;87.30;;;;;;5069053;28;20614;-81
2021/07/05 09:38:56;;;;;;;3.55;2.47;;;24.20;90.60;;;;;;5070718;28;20146;-82
2021/07/05 09:41:33;;;;;;;5.25;2.58;;;24.00;87.30;;;;;;5074671;28;20074;-81
2021/07/05 09:44:01;;;;;;;3.88;2.65;;;24.10;90.30;;;;;;5051557;28;20043;-81
2021/07/05 09:46:50;;;;;;;5.68;2.60;;;24.10;89.80;;;;;;5064016;28;20492;-81
2021/07/05 09:49:31;;;;;;;5.43;2.30;;;24.10;89.80;;;;;;5068955;28;20123;-80
2021/07/05 09:52:13;;;;;;;4.70;2.13;;;24.00;85.50;;;;;;5068571;28;20551;-81
2021/07/05 09:54:40;;;;;;;3.03;2.28;;;23.90;87.40;;;;;;5071624;28;20040;-82
2021/07/05 09:57:24;;;;;;;3.58;2.20;;;23.80;89.90;;;;;;5065704;28;20115;-82
2021/07/05 09:59:51;;;;;;;4.00;2.70;;;23.90;88.30;;;;;;5069510;28;20039;-81
2021/07/05 10:02:16;;;;;;;4.55;2.38;;;24.10;88.20;;;;;;5067184;27;20122;-83
2021/07/05 10:04:45;;;;;;;2.72;2.00;;;24.20;87.50;;;;;;5068021;28;20111;-81
2021/07/05 10:07:10;;;;;;;2.85;2.47;;;24.50;87.90;;;;;;5069061;28;20081;-82
2021/07/05 10:09:40;;;;;;;3.70;2.50;;;24.70;87.10;;;;;;5068714;28;20032;-82
2021/07/05 10:12:23;;;;;;;3.28;2.50;;;24.80;88.10;;;;;;5080447;28;20491;-81
2021/07/05 10:15:05;;;;;;;6.57;2.30;;;25.00;87.60;;;;;;5067709;28;20463;-81
2021/07/05 10:17:36;;;;;;;4.25;2.05;;;25.20;85.50;;;;;;5047053;28;20033;-82
2021/07/05 10:20:02;;;;;;;5.00;2.42;;;25.50;84.90;;;;;;5066958;28;20031;-81
2021/07/05 10:22:28;;;;;;;4.57;2.53;;;25.50;84.90;;;;;;5067552;28;20036;-82
2021/07/05 10:24:54;;;;;;;3.03;2.42;;;25.50;86.80;;;;;;5068922;28;20028;-83
2021/07/05 10:27:19;;;;;;;4.38;2.40;;;24.90;86.40;;;;;;5052539;28;20117;-82
2021/07/05 10:29:47;;;;;;;6.85;2.53;;;25.10;85.30;;;;;;5067912;28;20445;-82
2021/07/05 10:32:13;;;;;;;5.15;2.10;;;25.30;83.30;;;;;;5067075;28;20317;-83
2021/07/05 10:34:39;;;;;;;4.72;2.33;;;25.50;81.80;;;;;;5057226;28;20396;-83
2021/07/05 10:37:05;;;;;;;4.32;2.42;;;25.40;83.10;;;;;;5065693;28;20032;-83
2021/07/05 10:39:32;;;;;;;3.95;2.60;;;25.40;81.60;;;;;;5063954;28;20522;-83
2021/07/05 10:41:58;;;;;;;4.40;2.20;;;25.50;82.40;;;;;;5057272;28;20103;-84
2021/07/05 10:44:40;;;;;;;3.13;2.13;;;25.50;82.70;;;;;;5078972;27;20032;-82
2021/07/05 10:47:06;;;;;;;2.65;2.15;;;25.30;81.00;;;;;;5069883;28;20040;-84
2021/07/05 10:49:32;;;;;;;5.03;2.65;;;25.20;81.10;;;;;;5090049;28;20032;-82
2021/07/05 10:52:07;;;;;;;4.47;2.50;;;25.40;84.30;;;;;;5086856;28;20133;-83
2021/07/05 10:54:55;;;;;;;6.97;2.58;;;25.70;83.60;;;;;;5074695;28;20066;-83
2021/07/05 10:57:21;;;;;;;6.68;2.10;;;26.00;80.30;;;;;;5050021;28;20036;-83
2021/07/05 10:59:50;;;;;;;6.43;2.35;;;26.20;81.80;;;;;;5066360;28;20557;-85
2021/07/05 11:02:44;;;;;;;3.20;1.90;;;26.40;77.30;;;;;;5027792;28;20512;-83
2021/07/05 11:05:28;;;;;;;3.70;2.08;;;26.50;82.10;;;;;;5058430;28;20433;-84
2021/07/05 11:07:55;;;;;;;5.53;2.33;;;26.80;81.80;;;;;;5086783;28;20415;-83
2021/07/05 11:10:27;;;;;;;5.28;2.05;;;27.00;78.40;;;;;;5071934;28;20032;-84
2021/07/05 11:12:57;;;;;;;3.53;1.65;;;27.50;78.80;;;;;;5061536;28;20048;-84
2021/07/05 11:15:53;;;;;;;2.92;1.90;;;28.40;76.80;;;;;;5049069;28;20036;-85
2021/07/05 11:18:37;;;;;;;4.90;1.85;;;27.80;73.40;;;;;;5088444;28;20387;-83
2021/07/05 11:21:10;;;;;;;3.35;1.80;;;28.20;76.40;;;;;;5090341;28;20024;-83
2021/07/05 11:23:55;;;;;;;3.90;1.95;;;28.50;75.50;;;;;;5086360;28;20035;-83
2021/07/05 11:26:39;;;;;;;3.53;1.60;;;28.60;76.60;;;;;;5088915;28;20340;-81
2021/07/05 11:29:22;;;;;;;4.32;2.13;;;29.10;72.80;;;;;;5061793;28;20029;-81
2021/07/05 11:31:58;;;;;;;4.82;1.85;;;29.10;74.90;;;;;;5074644;28;20034;-80
2021/07/05 11:34:33;;;;;;;3.80;2.08;;;29.60;75.40;;;;;;5057859;28;20064;-81
2021/07/05 11:37:10;;;;;;;5.97;2.03;;;29.80;74.80;;;;;;5084454;28;20588;-79
2021/07/05 11:39:39;;;;;;;3.00;1.77;;;30.20;72.90;;;;;;5084925;28;20039;-80
2021/07/05 11:42:05;;;;;;;5.10;1.90;;;30.40;69.20;;;;;;5067668;28;20480;-80
2021/07/05 11:44:47;;;;;;;4.63;1.83;;;30.70;70.00;;;;;;5053508;28;20032;-78
2021/07/05 11:47:36;;;;;;;3.63;1.65;;;30.90;66.70;;;;;;5054504;28;20033;-79
2021/07/05 11:50:27;;;;;;;3.55;1.60;;;31.00;66.10;;;;;;5086278;28;20143;-78
2021/07/05 11:52:53;;;;;;;4.75;2.03;;;31.20;65.90;;;;;;5085030;28;20024;-77
2021/07/05 11:55:20;;;;;;;5.80;2.13;;;30.90;65.90;;;;;;5070540;28;20045;-77
2021/07/05 11:57:53;;;;;;;5.00;2.00;;;31.40;62.10;;;;;;5069441;28;20464;-78
2021/07/05 12:00:21;;;;;;;7.45;1.75;;;31.50;64.10;;;;;;5087544;28;20392;-78
2021/07/05 12:02:47;;;;;;;4.00;1.92;;;31.60;61.60;;;;;;5069314;28;20039;-77
2021/07/05 12:05:13;;;;;;;5.28;1.90;;;31.80;61.90;;;;;;5069662;28;20031;-76
2021/07/05 12:07:38;;;;;;;4.43;1.88;;;32.00;60.80;;;;;;5071470;28;20233;-77
2021/07/05 12:10:08;;;;;;;5.43;2.22;;;31.40;63.00;;;;;;5086603;28;20480;-77
2021/07/05 12:12:34;;;;;;;3.35;1.95;;;30.80;64.10;;;;;;5085868;28;20067;-76
2021/07/05 12:15:00;;;;;;;5.20;2.05;;;31.40;61.90;;;;;;5052653;28;20055;-77
2021/07/05 12:17:25;;;;;;;2.58;2.17;;;31.50;60.50;;;;;;5065775;28;20055;-77
2021/07/05 12:19:52;;;;;;;3.75;2.20;;;31.50;62.00;;;;;;5069953;28;20059;-77
2021/07/05 12:22:20;;;;;;;6.80;1.90;;;31.50;61.60;;;;;;5051787;28;20039;-76
2021/07/05 12:24:47;;;;;;;5.22;2.30;;;31.80;60.80;;;;;;5071498;28;20020;-78
2021/07/05 12:27:18;;;;;;;5.80;2.15;;;31.70;59.40;;;;;;5087785;28;20024;-76
2021/07/05 12:29:50;;;;;;;3.83;1.98;;;31.90;59.70;;;;;;5083587;28;20111;-76
2021/07/05 12:32:21;;;;;;;2.38;1.65;;;32.00;57.70;;;;;;5083868;28;20498;-77
2021/07/05 12:35:03;;;;;;;7.07;2.00;;;31.80;57.40;;;;;;5067256;28;20038;-76
2021/07/05 12:37:44;;;;;;;9.90;2.05;;;31.80;57.40;;;;;;5065391;28;20123;-76
2021/07/05 12:40:16;;;;;;;3.88;1.95;;;31.80;56.80;;;;;;5085331;28;20036;-77
2021/07/05 12:42:45;;;;;;;2.67;1.63;;;31.90;56.40;;;;;;5083864;28;20032;-75
2021/07/05 12:45:28;;;;;;;4.68;1.92;;;31.70;56.50;;;;;;5092405;28;20036;-76
2021/07/05 12:48:22;;;;;;;4.03;1.75;;;31.60;55.80;;;;;;5086250;28;20066;-76
2021/07/05 12:50:54;;;;;;;4.75;2.40;;;31.50;58.20;;;;;;5086191;28;20028;-74
2021/07/05 12:53:36;;;;;;;5.28;1.90;;;31.10;55.60;;;;;;5089319;28;20047;-75
2021/07/05 12:56:12;;;;;;;3.08;1.80;;;31.00;55.80;;;;;;5088286;28;20488;-76